createdAt,value
2018-03-16T12:56:55.448Z,8332.00
2018-03-16T12:56:55.972Z,8628.00
2018-03-16T12:56:56.536Z,8384.00
2018-03-16T12:58:13.296Z,7820.00
2018-03-16T12:58:13.857Z,7824.00
2018-03-16T12:58:14.798Z,7816.00
2018-03-16T12:58:15.490Z,7820.00
2018-03-16T12:58:16.436Z,7812.00
2018-03-16T12:59:30.592Z,7824.00
2018-03-16T12:59:31.267Z,7824.00
2018-03-16T12:59:31.848Z,7828.00
2018-03-16T12:59:32.388Z,7828.00
2018-03-16T12:59:33.126Z,7832.00
2018-03-16T12:59:33.590Z,7840.00
2018-03-16T12:59:34.222Z,7840.00
2018-03-16T12:59:34.748Z,7844.00
2018-03-16T12:59:35.422Z,7852.00
2018-03-16T12:59:36.039Z,7860.00
2018-03-16T12:59:36.698Z,7868.00
2018-03-16T12:59:37.298Z,7872.00
2018-03-16T12:59:37.876Z,7876.00
2018-03-16T12:59:38.411Z,7892.00
2018-03-16T12:59:39.408Z,7896.00
2018-03-16T12:59:39.872Z,7912.00
2018-03-16T13:00:54.524Z,8436.00
2018-03-16T13:00:55.186Z,8456.00
2018-03-16T13:00:55.837Z,8472.00
2018-03-16T13:00:56.520Z,8496.00
2018-03-16T13:00:57.193Z,8512.00
2018-03-16T13:00:57.838Z,8528.00
2018-03-16T13:01:55.450Z,7588.00
2018-03-16T13:01:56.106Z,7564.00
2018-03-16T13:01:57.067Z,7552.00
2018-03-16T13:01:57.601Z,7532.00
2018-03-16T13:02:52.967Z,6880.00
2018-03-16T13:02:53.497Z,6872.00
2018-03-16T13:02:54.146Z,6864.00
2018-03-16T13:02:54.718Z,6860.00
2018-03-16T13:02:55.359Z,6852.00
2018-03-16T13:02:56.007Z,6844.00
2018-03-16T13:04:17.744Z,5776.00
2018-03-16T13:04:18.338Z,5776.00
2018-03-16T13:04:18.890Z,5780.00
2018-03-16T13:04:19.578Z,5780.00
2018-03-16T13:04:20.122Z,5772.00
2018-03-16T13:04:20.787Z,5776.00
2018-03-16T13:04:21.453Z,5784.00
2018-03-16T13:04:22.166Z,5784.00
2018-03-16T13:04:22.682Z,5796.00
2018-03-16T13:04:23.342Z,5796.00
2018-03-16T13:04:23.980Z,5804.00
2018-03-16T13:04:24.938Z,5800.00
2018-03-16T13:04:25.467Z,5812.00
2018-03-16T13:04:26.004Z,5812.00
2018-03-16T13:05:21.138Z,6248.00
2018-03-16T13:05:21.797Z,6248.00
2018-03-16T13:05:22.464Z,6248.00
2018-03-16T13:05:23.420Z,6244.00
2018-03-16T13:05:23.950Z,6248.00
2018-03-16T13:05:24.476Z,6252.00
2018-03-16T13:05:25.143Z,6248.00
2018-03-16T13:05:25.777Z,6252.00
2018-03-16T13:05:26.420Z,6248.00
2018-03-16T13:05:27.088Z,6244.00
2018-03-16T13:05:27.727Z,6252.00
2018-03-16T13:05:28.258Z,6244.00
2018-03-16T13:05:29.268Z,6248.00
2018-03-16T13:05:29.866Z,6248.00
2018-03-16T13:05:30.524Z,6248.00
2018-03-16T13:05:31.199Z,6244.00
2018-03-16T13:05:31.758Z,6240.00
2018-03-16T13:05:32.296Z,6232.00
2018-03-16T13:05:32.960Z,6240.00
2018-03-16T13:05:33.987Z,6240.00
2018-03-16T13:05:34.549Z,6224.00
2018-03-16T13:05:35.247Z,6220.00
2018-03-16T13:05:35.759Z,6212.00
2018-03-16T13:05:36.330Z,6208.00
2018-03-16T13:05:37.043Z,6208.00
2018-03-16T13:05:37.567Z,6200.00
2018-03-16T13:05:38.142Z,6200.00
2018-03-16T13:05:38.780Z,6196.00
2018-03-16T13:05:39.317Z,6192.00
2018-03-16T13:05:39.853Z,6192.00
2018-03-16T13:05:40.518Z,6188.00
2018-03-16T13:05:41.152Z,6180.00
2018-03-16T13:05:41.683Z,6180.00
2018-03-16T13:05:42.665Z,6176.00
2018-03-16T13:05:43.294Z,6168.00
2018-03-16T13:05:45.643Z,6160.00
2018-03-16T13:05:46.295Z,6144.00
2018-03-16T13:05:46.838Z,6144.00
2018-03-16T13:05:47.489Z,6140.00
2018-03-16T13:05:48.443Z,6136.00
2018-03-16T13:05:49.037Z,6128.00
2018-03-16T13:05:49.567Z,6124.00
2018-03-16T13:05:50.516Z,6120.00
2018-03-16T13:05:51.470Z,6112.00
2018-03-16T13:05:52.153Z,6104.00
2018-03-16T13:05:52.648Z,6100.00
2018-03-16T13:05:53.310Z,6100.00
2018-03-16T13:05:53.981Z,6100.00
2018-03-16T13:05:54.526Z,6092.00
2018-03-16T13:05:55.085Z,6092.00
2018-03-16T13:05:55.738Z,6092.00
2018-03-16T13:05:56.397Z,6092.00
2018-03-16T13:05:56.938Z,6092.00
2018-03-16T13:05:57.892Z,6092.00
2018-03-16T13:05:58.539Z,6096.00
2018-03-16T13:05:59.072Z,6100.00
2018-03-16T13:05:59.744Z,6104.00
2018-03-16T13:06:00.282Z,6104.00
2018-03-16T13:06:00.947Z,6104.00
2018-03-16T13:06:01.608Z,6112.00
2018-03-16T13:06:02.209Z,6116.00
2018-03-16T13:06:02.728Z,6124.00
2018-03-16T13:06:03.405Z,6128.00
2018-03-16T13:06:04.389Z,6132.00
2018-03-16T13:06:04.876Z,6144.00
2018-03-16T13:06:05.443Z,6148.00
2018-03-16T13:06:06.909Z,6156.00
2018-03-16T13:06:07.548Z,6180.00
2018-03-16T13:06:08.209Z,6196.00
2018-03-16T13:06:08.743Z,6208.00
2018-03-16T13:06:09.272Z,6228.00
2018-03-16T13:06:09.849Z,6228.00
2018-03-16T13:06:10.629Z,6240.00
2018-03-16T13:06:11.177Z,6260.00
2018-03-16T13:06:12.126Z,6268.00
2018-03-16T13:06:12.787Z,6288.00
2018-03-16T13:06:13.454Z,6304.00
2018-03-16T13:06:14.100Z,6324.00
2018-03-16T13:06:14.639Z,6332.00
2018-03-16T13:06:15.632Z,6348.00
2018-03-16T13:06:16.256Z,6368.00
2018-03-16T13:06:16.914Z,6384.00
2018-03-16T13:06:17.868Z,6392.00
2018-03-16T13:06:18.538Z,6416.00
2018-03-16T13:06:19.179Z,6432.00
2018-03-16T13:06:20.144Z,6440.00
2018-03-16T13:06:21.084Z,6468.00
2018-03-16T13:06:21.751Z,6488.00
2018-03-16T13:06:22.421Z,6508.00
2018-03-16T13:06:23.088Z,6524.00
2018-03-16T13:06:23.653Z,6540.00
2018-03-16T13:06:24.284Z,6552.00
2018-03-16T13:06:25.254Z,6564.00
2018-03-16T13:06:25.982Z,6588.00
2018-03-16T13:06:26.523Z,6608.00
2018-03-16T13:06:27.175Z,6620.00
2018-03-16T13:06:28.129Z,6636.00
2018-03-16T13:06:28.708Z,6652.00
2018-03-16T13:06:29.368Z,6664.00
2018-03-16T13:06:30.049Z,6672.00
2018-03-16T13:06:30.695Z,6684.00
2018-03-16T13:06:31.257Z,6692.00
2018-03-16T13:06:31.803Z,6704.00
2018-03-16T13:06:32.756Z,6708.00
2018-03-16T13:06:33.289Z,6724.00
2018-03-16T13:06:33.840Z,6728.00
2018-03-16T13:06:34.363Z,6736.00
2018-03-16T13:06:35.318Z,6744.00
2018-03-16T13:06:35.858Z,6748.00
2018-03-16T13:06:36.507Z,6752.00
2018-03-16T13:06:37.197Z,6756.00
2018-03-16T13:06:37.869Z,6756.00
2018-03-16T13:06:38.405Z,6760.00
2018-03-16T13:06:39.040Z,6764.00
2018-03-16T13:06:39.986Z,6760.00
2018-03-16T13:06:40.722Z,6764.00
2018-03-16T13:06:41.299Z,6768.00
2018-03-16T13:06:41.953Z,6768.00
2018-03-16T13:06:42.596Z,6772.00
2018-03-16T13:06:43.258Z,6776.00
2018-03-16T13:06:43.847Z,6780.00
2018-03-16T13:06:44.375Z,6776.00
2018-03-16T13:06:45.339Z,6780.00
2018-03-16T13:06:46.296Z,6792.00
2018-03-16T13:06:46.968Z,6800.00
2018-03-16T13:06:47.630Z,6808.00
2018-03-16T13:06:48.589Z,6812.00
2018-03-16T13:06:49.227Z,6824.00
2018-03-16T13:06:49.810Z,6832.00
2018-03-16T13:06:50.400Z,6836.00
2018-03-16T13:06:51.348Z,6848.00
2018-03-16T13:06:52.309Z,6860.00
2018-03-16T13:06:52.802Z,6872.00
2018-03-16T13:06:53.447Z,6880.00
2018-03-16T13:06:54.808Z,6888.00
2018-03-16T13:06:55.277Z,6920.00
2018-03-16T13:06:55.810Z,6916.00
2018-03-16T13:06:56.538Z,6928.00
2018-03-16T13:06:57.048Z,6944.00
2018-03-16T13:06:57.700Z,6952.00
2018-03-16T13:06:58.364Z,6964.00
2018-03-16T13:06:58.938Z,6980.00
2018-03-16T13:06:59.529Z,6988.00
2018-03-16T13:07:00.186Z,7000.00
2018-03-16T13:07:00.737Z,7012.00
2018-03-16T13:07:01.388Z,7024.00
2018-03-16T13:07:02.028Z,7028.00
2018-03-16T13:07:02.692Z,7040.00
2018-03-16T13:07:03.354Z,7052.00
2018-03-16T13:07:04.199Z,7064.00
2018-03-16T13:07:04.537Z,7076.00
2018-03-16T13:07:05.105Z,7080.00
2018-03-16T13:08:19.500Z,7156.00
2018-03-16T13:08:20.132Z,7156.00
2018-03-16T13:08:20.899Z,7148.00
2018-03-16T13:08:21.433Z,7148.00
2018-03-16T13:08:22.392Z,7152.00
2018-03-16T13:08:23.138Z,7152.00
2018-03-16T13:09:17.393Z,6388.00
2018-03-16T13:09:18.363Z,6392.00
2018-03-16T13:09:19.120Z,6396.00
2018-03-16T13:09:19.698Z,6400.00
2018-03-16T13:09:20.348Z,6404.00
2018-03-16T13:09:21.009Z,6408.00
2018-03-16T13:10:15.947Z,6452.00
2018-03-16T13:10:16.916Z,6428.00
2018-03-16T13:10:17.398Z,6412.00
2018-03-16T13:10:17.938Z,6396.00
2018-03-16T13:10:18.630Z,6384.00
2018-03-16T13:10:19.238Z,6368.00
2018-03-16T13:11:14.279Z,5528.00
2018-03-16T13:11:14.895Z,5524.00
2018-03-16T13:11:15.547Z,5528.00
2018-03-16T13:11:16.254Z,5524.00
2018-03-16T13:11:16.899Z,5516.00
2018-03-16T13:11:17.443Z,5512.00
2018-03-16T13:12:11.459Z,5880.00
2018-03-16T13:12:11.987Z,5888.00
2018-03-16T13:12:12.641Z,5892.00
2018-03-16T13:12:13.589Z,5896.00
2018-03-16T13:12:14.480Z,5908.00
2018-03-16T13:12:15.159Z,5920.00
2018-03-16T13:13:11.571Z,6940.00
2018-03-16T13:13:12.035Z,6920.00
2018-03-16T13:13:12.699Z,6912.00
2018-03-16T13:13:13.297Z,6904.00
2018-03-16T13:14:28.075Z,7120.00
2018-03-16T13:14:28.583Z,7120.00
2018-03-16T13:14:29.537Z,7120.00
2018-03-16T13:14:30.198Z,7120.00
2018-03-16T13:14:31.057Z,7124.00
2018-03-16T13:14:31.602Z,7116.00
2018-03-16T13:15:26.166Z,6524.00
2018-03-16T13:15:26.717Z,6516.00
2018-03-16T13:15:27.372Z,6504.00
2018-03-16T13:15:27.959Z,6492.00
2018-03-16T13:15:28.519Z,6480.00
2018-03-16T13:15:29.043Z,6468.00
2018-03-16T13:15:29.618Z,6460.00
2018-03-16T13:16:43.844Z,6732.00
2018-03-16T13:16:44.501Z,6748.00
2018-03-16T13:16:45.149Z,6768.00
2018-03-16T13:16:45.817Z,6784.00
2018-03-16T13:16:46.421Z,6796.00
2018-03-16T13:16:47.108Z,6820.00
2018-03-16T13:18:52.128Z,8360.00
2018-03-16T13:18:53.070Z,8348.00
2018-03-16T13:18:53.927Z,8320.00
2018-03-16T13:18:54.577Z,8296.00
2018-03-16T13:18:55.258Z,8276.00
2018-03-16T13:20:18.297Z,9036.00
2018-03-16T13:20:18.948Z,9296.00
2018-03-16T13:20:19.540Z,9320.00
2018-03-16T13:20:20.148Z,9324.00
2018-03-16T13:20:20.680Z,9340.00
2018-03-16T13:20:21.337Z,9352.00
2018-03-16T13:20:22.026Z,9364.00
2018-03-16T13:20:22.639Z,9380.00
2018-03-16T13:44:42.513Z,5372.00
2018-03-16T13:44:43.165Z,5376.00
2018-03-16T13:44:43.885Z,5380.00
2018-03-16T13:44:44.433Z,5388.00
2018-03-16T13:44:45.123Z,5392.00
2018-03-16T13:44:45.654Z,5396.00
2018-03-16T13:44:46.345Z,5400.00
2018-03-16T13:44:47.011Z,5404.00
2018-03-16T13:44:47.873Z,5408.00
2018-03-16T13:44:48.424Z,5416.00
2018-03-16T13:44:49.381Z,5420.00
2018-03-16T13:44:49.931Z,5420.00
2018-03-16T13:44:50.581Z,5424.00
2018-03-16T13:44:51.238Z,5428.00
2018-03-16T13:44:51.912Z,5428.00
2018-03-16T13:44:52.792Z,5432.00
2018-03-16T13:44:53.433Z,5432.00
2018-03-16T13:44:54.133Z,5432.00
2018-03-16T13:44:54.681Z,5432.00
2018-03-16T13:44:55.345Z,5432.00
2018-03-16T13:44:56.084Z,5432.00
2018-03-16T13:44:56.733Z,5428.00
2018-03-16T13:44:57.394Z,5428.00
2018-03-16T13:44:58.035Z,5432.00
2018-03-16T13:44:58.994Z,5424.00
2018-03-16T13:44:59.942Z,5428.00
2018-03-16T13:45:00.902Z,5424.00
2018-03-16T13:45:02.002Z,5424.00
2018-03-16T13:45:02.501Z,5420.00
2018-03-16T13:45:03.361Z,5420.00
2018-03-16T13:45:04.323Z,5420.00
2018-03-16T13:45:04.926Z,5420.00
2018-03-16T13:45:05.471Z,5420.00
2018-03-16T13:45:06.154Z,5416.00
2018-03-16T13:45:06.756Z,5420.00
2018-03-16T13:45:07.449Z,5416.00
2018-03-16T13:45:08.054Z,5412.00
2018-03-16T13:45:08.596Z,5408.00
2018-03-16T13:45:09.553Z,5408.00
2018-03-16T13:45:10.123Z,5408.00
2018-03-16T13:45:11.072Z,5400.00
2018-03-16T13:45:11.738Z,5400.00
2018-03-16T13:45:12.413Z,5400.00
2018-03-16T13:45:13.149Z,5400.00
2018-03-16T13:45:13.573Z,5392.00
2018-03-16T13:45:14.263Z,5392.00
2018-03-16T13:45:14.902Z,5388.00
2018-03-16T13:45:15.452Z,5384.00
2018-03-16T13:45:16.102Z,5384.00
2018-03-16T13:45:16.995Z,5380.00
2018-03-16T13:45:17.684Z,5372.00
2018-03-16T13:45:18.294Z,5364.00
2018-03-16T13:45:18.827Z,5360.00
2018-03-16T13:45:19.412Z,5348.00
2018-03-16T13:45:20.382Z,5344.00
2018-03-16T13:45:21.011Z,5328.00
2018-03-16T13:45:22.002Z,5320.00
2018-03-16T13:45:22.475Z,5308.00
2018-03-16T13:45:23.053Z,5300.00
2018-03-16T13:45:23.718Z,5292.00
2018-03-16T13:45:24.247Z,5280.00
2018-03-16T13:45:24.903Z,5272.00
2018-03-16T13:45:25.590Z,5260.00
2018-03-16T13:45:26.136Z,5252.00
2018-03-16T13:45:27.085Z,5248.00
2018-03-16T13:45:27.578Z,5236.00
2018-03-16T13:45:28.173Z,5228.00
2018-03-16T13:45:28.833Z,5220.00
2018-03-16T13:45:29.350Z,5216.00
2018-03-16T13:45:30.023Z,5220.00
2018-03-16T13:45:30.942Z,5208.00
2018-03-16T13:45:31.456Z,5200.00
2018-03-16T13:45:32.142Z,5196.00
2018-03-16T13:45:32.687Z,5192.00
2018-03-16T13:45:33.212Z,5188.00
2018-03-16T13:45:34.186Z,5188.00
2018-03-16T13:45:34.815Z,5184.00
2018-03-16T13:45:35.382Z,5188.00
2018-03-16T13:45:36.353Z,5188.00
2018-03-16T13:45:37.321Z,5192.00
2018-03-16T13:45:37.907Z,5204.00
2018-03-16T13:45:38.841Z,5216.00
2018-03-16T13:45:39.499Z,5216.00
2018-03-16T13:45:40.062Z,5228.00
2018-03-16T13:45:40.641Z,5232.00
2018-03-16T13:45:41.341Z,5240.00
2018-03-16T13:45:41.889Z,5248.00
2018-03-16T13:45:42.605Z,5260.00
2018-03-16T13:45:43.261Z,5268.00
2018-03-16T13:45:43.880Z,5276.00
2018-03-16T13:45:44.535Z,5280.00
2018-03-16T13:45:45.122Z,5288.00
2018-03-16T13:45:45.708Z,5296.00
2018-03-16T13:45:46.424Z,5304.00
2018-03-16T13:45:46.924Z,5312.00
2018-03-16T13:45:47.622Z,5324.00
2018-03-16T13:45:48.094Z,5332.00
2018-03-16T13:45:48.625Z,5336.00
2018-03-16T13:45:49.294Z,5344.00
2018-03-16T13:45:49.841Z,5352.00
2018-03-16T13:45:50.433Z,5360.00
2018-03-16T13:45:51.086Z,5368.00
2018-03-16T13:45:51.753Z,5368.00
2018-03-16T13:45:52.422Z,5372.00
2018-03-16T13:45:53.089Z,5376.00
2018-03-16T13:45:54.061Z,5376.00
2018-03-16T13:45:54.810Z,5376.00
2018-03-16T13:45:55.391Z,5376.00
2018-03-16T13:45:56.085Z,5376.00
2018-03-16T13:45:56.663Z,5372.00
2018-03-16T13:45:57.568Z,5368.00
2018-03-16T13:45:58.533Z,5368.00
2018-03-16T13:45:59.477Z,5360.00
2018-03-16T13:46:00.004Z,5352.00
2018-03-16T13:46:00.547Z,5348.00
2018-03-16T13:46:01.120Z,5348.00
2018-03-16T13:46:01.799Z,5340.00
2018-03-16T13:46:02.452Z,5336.00
2018-03-16T13:46:03.074Z,5328.00
2018-03-16T13:46:03.609Z,5316.00
2018-03-16T13:46:04.307Z,5316.00
2018-03-16T13:46:05.195Z,5300.00
2018-03-16T13:46:06.153Z,5292.00
2018-03-16T13:46:06.934Z,5276.00
2018-03-16T13:46:07.471Z,5260.00
2018-03-16T13:46:08.427Z,5256.00
2018-03-16T13:46:08.948Z,5244.00
2018-03-16T13:46:09.624Z,5236.00
2018-03-16T13:46:10.342Z,5228.00
2018-03-16T13:46:10.886Z,5220.00
2018-03-16T13:46:11.903Z,5212.00
2018-03-16T13:46:12.482Z,5208.00
2018-03-16T13:46:13.144Z,5204.00
2018-03-16T13:46:13.982Z,5196.00
2018-03-16T13:46:14.522Z,5196.00
2018-03-16T13:46:15.474Z,5196.00
2018-03-16T13:46:16.124Z,5192.00
2018-03-16T13:46:16.829Z,5192.00
2018-03-16T13:46:17.469Z,5188.00
2018-03-16T13:46:17.921Z,5192.00
2018-03-16T13:46:19.598Z,5188.00
2018-03-16T13:46:20.595Z,5196.00
2018-03-16T13:46:21.137Z,5188.00
2018-03-16T13:46:21.650Z,5196.00
2018-03-16T13:46:22.278Z,5200.00
2018-03-16T13:46:22.709Z,5200.00
2018-03-16T13:46:23.631Z,5204.00
2018-03-16T13:46:24.306Z,5208.00
2018-03-16T13:46:24.967Z,5208.00
2018-03-16T13:46:25.639Z,5216.00
2018-03-16T13:46:26.152Z,5220.00
2018-03-16T13:46:26.724Z,5228.00
2018-03-16T13:46:27.421Z,5236.00
2018-03-16T13:46:27.968Z,5240.00
2018-03-16T13:46:28.672Z,5252.00
2018-03-16T13:46:29.321Z,5260.00
2018-03-16T13:46:29.851Z,5276.00
2018-03-16T13:46:30.430Z,5284.00
2018-03-16T13:46:31.084Z,5304.00
2018-03-16T13:46:31.762Z,5316.00
2018-03-16T13:46:32.422Z,5324.00
2018-03-16T13:46:32.972Z,5340.00
2018-03-16T13:46:33.623Z,5352.00
2018-03-16T13:46:34.302Z,5364.00
2018-03-16T13:46:34.962Z,5380.00
2018-03-16T13:46:35.621Z,5392.00
2018-03-16T13:46:36.161Z,5404.00
2018-03-16T13:46:36.804Z,5416.00
2018-03-16T13:46:37.493Z,5424.00
2018-03-16T13:46:38.028Z,5436.00
2018-03-16T13:46:38.663Z,5444.00
2018-03-16T13:46:39.563Z,5452.00
2018-03-16T13:46:40.221Z,5460.00
2018-03-16T13:46:40.769Z,5468.00
2018-03-16T13:46:41.352Z,5476.00
2018-03-16T13:46:42.175Z,5484.00
2018-03-16T13:46:42.821Z,5492.00
2018-03-16T13:46:43.473Z,5496.00
2018-03-16T13:46:44.061Z,5500.00
2018-03-16T13:46:44.642Z,5504.00
2018-03-16T13:46:45.316Z,5508.00
2018-03-16T13:46:45.862Z,5504.00
2018-03-16T13:46:46.424Z,5504.00
2018-03-16T13:46:47.051Z,5508.00
2018-03-16T13:46:47.596Z,5508.00
2018-03-16T13:46:48.148Z,5512.00
2018-03-16T13:46:48.653Z,5512.00
2018-03-16T13:46:49.333Z,5508.00
2018-03-16T13:46:49.873Z,5508.00
2018-03-16T13:46:50.452Z,5508.00
2018-03-16T13:46:51.127Z,5504.00
2018-03-16T13:46:51.785Z,5500.00
2018-03-16T13:46:52.466Z,5500.00
2018-03-16T13:46:53.147Z,5496.00
2018-03-16T13:46:53.692Z,5496.00
2018-03-16T13:46:54.353Z,5492.00
2018-03-16T13:46:55.316Z,5492.00
2018-03-16T13:46:55.984Z,5492.00
2018-03-16T13:46:56.940Z,5484.00
2018-03-16T13:46:57.703Z,5484.00
2018-03-16T13:46:58.375Z,5480.00
2018-03-16T13:46:59.040Z,5480.00
2018-03-16T13:46:59.570Z,5476.00
2018-03-16T13:47:00.534Z,5472.00
2018-03-16T13:47:01.228Z,5468.00
2018-03-16T13:47:01.909Z,5464.00
2018-03-16T13:47:02.731Z,5460.00
2018-03-16T13:47:03.272Z,5452.00
2018-03-16T13:47:03.845Z,5452.00
2018-03-16T13:47:04.510Z,5444.00
2018-03-16T13:47:05.036Z,5440.00
2018-03-16T13:47:06.027Z,5432.00
2018-03-16T13:47:06.536Z,5424.00
2018-03-16T13:47:07.492Z,5420.00
2018-03-16T13:47:08.652Z,5420.00
2018-03-16T13:47:09.336Z,5412.00
2018-03-16T13:47:09.908Z,5416.00
2018-03-16T13:47:10.443Z,5412.00
2018-03-16T13:47:11.091Z,5412.00
2018-03-16T13:47:12.038Z,5412.00
2018-03-16T13:47:12.975Z,5412.00
2018-03-16T13:47:13.748Z,5420.00
2018-03-16T13:47:14.282Z,5420.00
2018-03-16T13:47:14.759Z,5420.00
2018-03-16T13:47:15.419Z,5428.00
2018-03-16T13:47:15.988Z,5428.00
2018-03-16T13:47:16.608Z,5436.00
2018-03-16T13:47:17.211Z,5440.00
2018-03-16T13:47:17.892Z,5448.00
2018-03-16T13:47:18.248Z,5452.00
2018-03-16T13:47:18.850Z,5456.00
2018-03-16T13:48:12.433Z,6112.00
2018-03-16T13:48:12.959Z,6120.00
2018-03-16T13:48:13.651Z,6128.00
2018-03-16T13:48:14.325Z,6136.00
2018-03-16T13:48:14.868Z,6144.00
2018-03-16T13:48:15.802Z,6152.00
2018-03-16T13:48:16.337Z,6160.00
2018-03-16T13:48:17.292Z,6164.00
2018-03-16T13:48:17.848Z,6168.00
2018-03-16T13:48:18.387Z,6160.00
2018-03-16T13:48:19.332Z,6160.00
2018-03-16T13:48:19.877Z,6148.00
2018-03-16T13:48:20.552Z,6140.00
2018-03-16T13:48:21.221Z,6128.00
2018-03-16T13:48:21.752Z,6116.00
2018-03-16T13:48:22.423Z,6100.00
2018-03-16T13:48:23.243Z,6084.00
2018-03-16T13:48:23.905Z,6064.00
2018-03-16T13:48:24.817Z,6040.00
2018-03-16T13:48:25.362Z,6012.00
2018-03-16T13:48:26.341Z,5996.00
2018-03-16T13:48:26.972Z,5960.00
2018-03-16T13:48:27.950Z,5940.00
2018-03-16T13:48:28.555Z,5908.00
2018-03-16T13:48:29.298Z,5884.00
2018-03-16T13:48:29.992Z,5860.00
2018-03-16T13:48:30.620Z,5840.00
2018-03-16T13:48:31.262Z,5820.00
2018-03-16T13:48:31.833Z,5796.00
2018-03-16T13:48:32.489Z,5776.00
2018-03-16T13:48:33.018Z,5756.00
2018-03-16T13:48:33.682Z,5736.00
2018-03-16T13:48:34.341Z,5720.00
2018-03-16T13:48:35.303Z,5700.00
2018-03-16T13:48:35.953Z,5668.00
2018-03-16T13:48:36.494Z,5656.00
2018-03-16T13:48:37.502Z,5636.00
2018-03-16T13:48:37.995Z,5604.00
2018-03-16T13:48:38.572Z,5592.00
2018-03-16T13:48:39.332Z,5572.00
2018-03-16T13:48:39.910Z,5556.00
2018-03-16T13:48:40.501Z,5540.00
2018-03-16T13:48:41.113Z,5528.00
2018-03-16T13:48:41.814Z,5512.00
2018-03-16T13:48:42.406Z,5500.00
2018-03-16T13:48:43.112Z,5496.00
2018-03-16T13:48:43.660Z,5488.00
2018-03-16T13:48:44.433Z,5484.00
2018-03-16T13:48:44.932Z,5480.00
2018-03-16T13:48:45.454Z,5480.00
2018-03-16T13:48:46.132Z,5472.00
2018-03-16T13:48:47.082Z,5468.00
2018-03-16T13:48:48.043Z,5464.00
2018-03-16T13:48:48.771Z,5464.00
2018-03-16T13:48:49.317Z,5464.00
2018-03-16T13:48:49.981Z,5464.00
2018-03-16T13:48:50.654Z,5468.00
2018-03-16T13:48:51.173Z,5472.00
2018-03-16T13:48:51.823Z,5480.00
2018-03-16T13:48:52.381Z,5484.00
2018-03-16T13:48:52.900Z,5492.00
2018-03-16T13:48:53.481Z,5496.00
2018-03-16T13:48:54.310Z,5508.00
2018-03-16T13:48:54.894Z,5516.00
2018-03-16T13:48:55.598Z,5528.00
2018-03-16T13:48:56.162Z,5536.00
2018-03-16T13:48:56.688Z,5552.00
2018-03-16T13:48:57.351Z,5556.00
2018-03-16T13:48:58.012Z,5576.00
2018-03-16T13:48:58.551Z,5588.00
2018-03-16T13:48:59.507Z,5592.00
2018-03-16T13:49:00.350Z,5620.00
2018-03-16T13:49:00.888Z,5632.00
2018-03-16T13:49:01.471Z,5644.00
2018-03-16T13:49:02.126Z,5660.00
2018-03-16T13:49:03.081Z,5672.00
2018-03-16T13:49:03.758Z,5688.00
2018-03-16T13:49:04.284Z,5704.00
2018-03-16T13:49:04.963Z,5720.00
2018-03-16T13:49:05.669Z,5732.00
2018-03-16T13:49:06.242Z,5748.00
2018-03-16T13:49:06.904Z,5756.00
2018-03-16T13:49:07.439Z,5768.00
2018-03-16T13:49:07.981Z,5784.00
2018-03-16T13:49:08.953Z,5792.00
2018-03-16T13:49:09.477Z,5812.00
2018-03-16T13:49:10.143Z,5824.00
2018-03-16T13:49:10.817Z,5836.00
2018-03-16T13:49:11.358Z,5848.00
2018-03-16T13:49:12.025Z,5856.00
2018-03-16T13:49:13.041Z,5880.00
2018-03-16T13:49:13.632Z,5904.00
2018-03-16T13:49:14.292Z,5916.00
2018-03-16T13:49:14.831Z,5932.00
2018-03-16T13:49:15.361Z,5948.00
2018-03-16T13:49:16.033Z,5960.00
2018-03-16T13:49:16.701Z,5976.00
2018-03-16T13:49:17.282Z,5992.00
2018-03-16T13:49:17.971Z,6000.00
2018-03-16T13:49:18.512Z,6008.00
2018-03-16T13:49:19.461Z,6032.00
2018-03-16T13:49:20.128Z,6044.00
2018-03-16T13:49:20.686Z,6048.00
2018-03-16T13:49:21.352Z,6052.00
2018-03-16T13:49:21.883Z,6068.00
2018-03-16T13:49:22.417Z,6072.00
2018-03-16T13:49:23.073Z,6072.00
2018-03-16T13:49:23.747Z,6084.00
2018-03-16T13:49:24.311Z,6084.00
2018-03-16T13:49:24.844Z,6092.00
2018-03-16T13:49:25.493Z,6092.00
2018-03-16T13:49:26.151Z,6096.00
2018-03-16T13:49:26.695Z,6100.00
2018-03-16T13:49:27.348Z,6104.00
2018-03-16T13:49:28.309Z,6108.00
2018-03-16T13:49:29.261Z,6116.00
2018-03-16T13:49:29.959Z,6120.00
2018-03-16T13:49:30.633Z,6120.00
2018-03-16T13:49:31.301Z,6124.00
2018-03-16T13:49:32.305Z,6124.00
2018-03-16T13:49:32.988Z,6120.00
2018-03-16T13:49:34.355Z,6120.00
2018-03-16T13:49:34.789Z,6108.00
2018-03-16T13:49:35.462Z,6108.00
2018-03-16T13:49:36.119Z,6100.00
2018-03-16T13:49:36.824Z,6092.00
2018-03-16T13:49:37.445Z,6080.00
2018-03-16T13:49:38.324Z,6068.00
2018-03-16T13:49:38.867Z,6048.00
2018-03-16T13:49:39.820Z,6032.00
2018-03-16T13:49:40.388Z,6008.00
2018-03-16T13:49:41.033Z,5996.00
2018-03-16T13:49:41.613Z,5976.00
2018-03-16T13:49:42.302Z,5956.00
2018-03-16T13:49:42.849Z,5936.00
2018-03-16T13:49:43.420Z,5924.00
2018-03-16T13:49:43.974Z,5908.00
2018-03-16T13:49:44.525Z,5888.00
2018-03-16T13:49:45.185Z,5872.00
2018-03-16T13:49:45.842Z,5848.00
2018-03-16T13:49:46.350Z,5820.00
2018-03-16T13:49:47.304Z,5804.00
2018-03-16T13:49:47.882Z,5764.00
2018-03-16T13:49:48.416Z,5736.00
2018-03-16T13:49:49.074Z,5716.00
2018-03-16T13:49:49.871Z,5692.00
2018-03-16T13:49:50.525Z,5648.00
2018-03-16T13:49:51.197Z,5612.00
2018-03-16T13:49:51.725Z,5584.00
2018-03-16T13:49:52.391Z,5556.00
2018-03-16T13:49:53.174Z,5524.00
2018-03-16T13:49:53.719Z,5480.00
2018-03-16T13:49:54.379Z,5456.00
2018-03-16T13:49:54.925Z,5424.00
2018-03-16T13:49:55.890Z,5396.00
2018-03-16T13:49:56.542Z,5348.00
2018-03-16T13:49:57.078Z,5320.00
2018-03-16T13:49:57.741Z,5292.00
2018-03-16T13:49:58.401Z,5268.00
2018-03-16T13:49:59.414Z,5236.00
2018-03-16T13:50:00.062Z,5204.00
2018-03-16T13:50:01.023Z,5172.00
2018-03-16T13:50:01.912Z,5140.00
2018-03-16T13:50:02.576Z,5104.00
2018-03-16T13:50:03.215Z,5084.00
2018-03-16T13:50:03.815Z,5060.00
2018-03-16T13:50:04.493Z,5044.00
2018-03-16T13:50:05.156Z,5028.00
2018-03-16T13:50:05.833Z,5004.00
2018-03-16T13:50:06.495Z,4988.00
2018-03-16T13:50:07.437Z,4976.00
2018-03-16T13:50:07.977Z,4956.00
2018-03-16T13:50:08.641Z,4944.00
2018-03-16T13:50:09.311Z,4928.00
2018-03-16T13:50:10.284Z,4916.00
2018-03-16T13:50:10.949Z,4900.00
2018-03-16T13:50:11.486Z,4888.00
2018-03-16T13:50:12.027Z,4880.00
2018-03-16T13:50:12.711Z,4876.00
2018-03-16T13:50:13.283Z,4868.00
2018-03-16T13:50:13.818Z,4860.00
2018-03-16T13:50:14.481Z,4860.00
2018-03-16T13:50:15.317Z,4852.00
2018-03-16T13:50:15.879Z,4844.00
2018-03-16T13:50:16.543Z,4840.00
2018-03-16T13:50:17.175Z,4836.00
2018-03-16T13:50:17.785Z,4832.00
2018-03-16T13:50:18.433Z,4832.00
2018-03-16T13:50:18.967Z,4832.00
2018-03-16T13:50:19.569Z,4832.00
2018-03-16T13:50:20.213Z,4832.00
2018-03-16T13:50:21.212Z,4832.00
2018-03-16T13:50:21.915Z,4836.00
2018-03-16T13:50:22.590Z,4844.00
2018-03-16T13:50:23.181Z,4844.00
2018-03-16T13:50:23.716Z,4852.00
2018-03-16T13:50:24.674Z,4860.00
2018-03-16T13:50:25.372Z,4872.00
2018-03-16T13:50:26.159Z,4888.00
2018-03-16T13:50:26.778Z,4904.00
2018-03-16T13:50:27.421Z,4916.00
2018-03-16T13:50:28.072Z,4924.00
2018-03-16T13:50:28.664Z,4936.00
2018-03-16T13:50:29.359Z,4952.00
2018-03-16T13:50:29.908Z,4964.00
2018-03-16T13:50:30.591Z,4976.00
2018-03-16T13:50:31.513Z,4988.00
2018-03-16T13:50:32.451Z,5004.00
2018-03-16T13:50:33.077Z,5016.00
2018-03-16T13:50:33.749Z,5036.00
2018-03-16T13:50:34.494Z,5052.00
2018-03-16T13:50:35.025Z,5064.00
2018-03-16T13:50:35.992Z,5076.00
2018-03-16T13:50:36.646Z,5088.00
2018-03-16T13:50:37.343Z,5100.00
2018-03-16T13:50:37.931Z,5112.00
2018-03-16T13:50:38.832Z,5124.00
2018-03-16T13:50:39.407Z,5136.00
2018-03-16T13:50:40.491Z,5140.00
2018-03-16T13:50:41.064Z,5156.00
2018-03-16T13:50:42.024Z,5164.00
2018-03-16T13:50:42.569Z,5168.00
2018-03-16T13:50:43.522Z,5172.00